createdAt,value
2018-04-14T00:02:00.393Z,16.97
2018-04-14T00:04:28.841Z,16.96
2018-04-14T00:06:57.243Z,16.63
2018-04-14T00:09:25.655Z,16.12
2018-04-14T00:11:54.046Z,16.49
2018-04-14T00:14:22.463Z,16.74
2018-04-14T00:16:50.821Z,16.20
2018-04-14T00:19:19.289Z,16.03
2018-04-14T00:21:47.709Z,16.43
2018-04-14T00:24:16.123Z,16.53
2018-04-14T00:26:44.530Z,16.76
2018-04-14T00:29:12.901Z,16.44
2018-04-14T00:31:41.269Z,16.99
2018-04-14T00:34:09.637Z,16.96
2018-04-14T00:36:38.006Z,15.45
2018-04-14T00:39:06.426Z,16.40
2018-04-14T00:41:34.882Z,15.93
2018-04-14T00:44:03.248Z,16.32
2018-04-14T00:46:31.614Z,16.47
2018-04-14T00:48:59.980Z,16.35
2018-04-14T00:51:28.389Z,16.66
2018-04-14T00:53:56.773Z,16.40
2018-04-14T00:56:25.258Z,16.60
2018-04-14T00:58:53.641Z,16.99
2018-04-14T01:01:22.197Z,16.21
2018-04-14T01:03:50.618Z,16.61
2018-04-14T01:06:19.009Z,16.54
2018-04-14T01:08:47.368Z,15.94
2018-04-14T01:11:15.765Z,16.58
2018-04-14T01:13:44.203Z,16.48
2018-04-14T01:16:12.617Z,15.97
2018-04-14T01:18:41.155Z,16.29
2018-04-14T01:21:09.558Z,16.45
2018-04-14T01:23:37.937Z,16.14
2018-04-14T01:26:06.301Z,16.46
2018-04-14T01:28:34.669Z,16.69
2018-04-14T01:31:03.202Z,16.09
2018-04-14T01:33:31.561Z,16.63
2018-04-14T01:35:59.927Z,16.84
2018-04-14T01:38:28.291Z,16.65
2018-04-14T01:40:56.690Z,16.17
2018-04-14T01:43:25.227Z,16.55
2018-04-14T01:45:53.625Z,16.52
2018-04-14T01:48:22.100Z,16.67
2018-04-14T01:50:50.505Z,16.28
2018-04-14T01:53:18.988Z,16.65
2018-04-14T01:55:47.532Z,16.83
2018-04-14T01:58:16.129Z,16.67
2018-04-14T02:00:44.547Z,16.77
2018-04-14T02:03:12.953Z,16.82
2018-04-14T02:05:41.356Z,16.96
2018-04-14T02:08:09.820Z,16.83
2018-04-14T02:10:38.277Z,16.93
2018-04-14T02:13:06.676Z,16.99
2018-04-14T02:15:35.043Z,16.34
2018-04-14T02:18:03.522Z,16.43
2018-04-14T02:20:31.938Z,16.62
2018-04-14T02:23:00.317Z,16.93
2018-04-14T02:25:28.703Z,15.97
2018-04-14T02:27:57.103Z,16.35
2018-04-14T02:30:25.505Z,16.46
2018-04-14T02:32:53.985Z,16.15
2018-04-14T02:35:22.445Z,16.59
2018-04-14T02:37:50.885Z,16.49
2018-04-14T02:40:19.282Z,16.49
2018-04-14T02:42:47.649Z,16.61
2018-04-14T02:45:16.043Z,16.41
2018-04-14T02:47:44.492Z,16.45
2018-04-14T02:50:12.873Z,16.47
2018-04-14T02:52:41.388Z,16.43
2018-04-14T02:55:09.755Z,16.35
2018-04-14T02:57:38.112Z,16.36
2018-04-14T03:00:30.116Z,16.54
2018-04-14T03:02:58.481Z,16.24
2018-04-14T03:05:26.906Z,16.53
2018-04-14T03:07:55.353Z,16.37
2018-04-14T03:10:23.754Z,16.12
2018-04-14T03:12:52.116Z,15.93
2018-04-14T03:15:20.516Z,16.26
2018-04-14T03:17:49.033Z,16.07
2018-04-14T03:20:17.406Z,16.47
2018-04-14T03:22:45.762Z,16.54
2018-04-14T03:25:14.124Z,16.10
2018-04-14T03:27:42.493Z,15.18
2018-04-14T03:30:11.043Z,16.03
2018-04-14T03:32:39.418Z,15.98
2018-04-14T03:35:07.789Z,16.16
2018-04-14T03:37:36.176Z,16.30
2018-04-14T03:40:04.536Z,16.25
2018-04-14T03:42:32.976Z,16.13
2018-04-14T03:45:01.354Z,16.15
2018-04-14T03:47:29.823Z,15.97
2018-04-14T03:49:58.262Z,16.09
2018-04-14T03:52:26.641Z,15.99
2018-04-14T03:54:55.198Z,15.91
2018-04-14T03:57:23.563Z,15.93
2018-04-14T03:59:51.959Z,16.09
2018-04-14T04:02:20.414Z,16.09
2018-04-14T04:04:48.813Z,16.00
2018-04-14T04:07:17.278Z,15.91
2018-04-14T04:09:45.676Z,15.72
2018-04-14T04:12:14.057Z,15.87
2018-04-14T04:14:42.524Z,15.64
2018-04-14T04:17:10.897Z,15.44
2018-04-14T04:19:50.951Z,15.53
2018-04-14T04:22:31.194Z,15.63
2018-04-14T04:28:04.131Z,15.56
2018-04-14T04:30:32.282Z,15.68
2018-04-14T04:33:00.383Z,15.52
2018-04-14T04:35:28.481Z,15.31
2018-04-14T04:37:56.591Z,15.50
2018-04-14T04:40:24.871Z,15.32
2018-04-14T04:42:53.043Z,14.93
2018-04-14T04:45:21.145Z,15.14
2018-04-14T04:47:49.242Z,15.07
2018-04-14T04:50:17.414Z,15.02
2018-04-14T04:52:45.549Z,14.92
2018-04-14T04:55:13.647Z,14.95
2018-04-14T04:57:41.745Z,15.13
2018-04-14T05:00:09.844Z,15.06
2018-04-14T05:02:38.128Z,15.16
2018-04-14T05:05:06.237Z,15.26
2018-04-14T05:07:34.348Z,15.35
2018-04-14T05:10:02.464Z,15.30
2018-04-14T05:12:30.579Z,15.25
2018-04-14T05:14:58.737Z,15.18
2018-04-14T05:17:26.862Z,15.30
2018-04-14T05:19:54.976Z,15.24
2018-04-14T05:22:23.106Z,15.17
2018-04-14T05:24:51.230Z,15.26
2018-04-14T05:27:19.353Z,15.36
2018-04-14T05:29:47.477Z,15.41
2018-04-14T05:32:15.629Z,15.48
2018-04-14T05:34:43.849Z,14.89
2018-04-14T05:37:11.965Z,14.96
2018-04-14T05:39:40.159Z,15.92
2018-04-14T05:42:08.279Z,16.00
2018-04-14T05:44:36.443Z,16.52
2018-04-14T05:47:04.566Z,15.90
2018-04-14T05:49:32.651Z,15.99
2018-04-14T05:52:00.769Z,15.80
2018-04-14T05:54:29.006Z,15.83
2018-04-14T05:56:57.197Z,16.24
2018-04-14T05:59:25.318Z,16.73
2018-04-14T06:01:53.546Z,16.25
2018-04-14T06:04:21.682Z,16.01
2018-04-14T06:06:49.794Z,16.38
2018-04-14T06:09:18.102Z,16.89
2018-04-14T06:11:46.232Z,16.72
2018-04-14T06:14:14.350Z,16.61
2018-04-14T06:16:42.561Z,17.43
2018-04-14T06:19:10.730Z,19.09
2018-04-14T06:21:38.993Z,19.15
2018-04-14T06:24:07.165Z,18.97
2018-04-14T06:26:35.252Z,19.28
2018-04-14T06:29:03.344Z,19.86
2018-04-14T06:31:31.456Z,19.25
2018-04-14T06:34:00.646Z,19.89
2018-04-14T06:36:28.718Z,19.53
2018-04-14T06:38:56.798Z,20.07
2018-04-14T06:41:25.126Z,20.16
2018-04-14T06:43:53.212Z,20.20
2018-04-14T06:46:21.399Z,20.85
2018-04-14T06:48:49.486Z,21.29
2018-04-14T06:51:17.567Z,21.69
2018-04-14T06:53:45.653Z,21.85
2018-04-14T06:56:13.742Z,20.90
2018-04-14T06:58:41.905Z,22.00
2018-04-14T07:01:10.033Z,22.57
2018-04-14T07:03:38.125Z,23.15
2018-04-14T07:06:06.215Z,23.20
2018-04-14T07:08:34.347Z,23.42
2018-04-14T07:11:02.493Z,23.45
2018-04-14T07:13:30.806Z,23.84
2018-04-14T07:15:58.922Z,24.81
2018-04-14T07:18:27.074Z,25.26
2018-04-14T07:20:55.190Z,25.46
2018-04-14T07:23:23.382Z,25.19
2018-04-14T07:25:51.585Z,25.07
2018-04-14T07:28:19.704Z,24.80
2018-04-14T07:30:47.831Z,24.91
2018-04-14T07:33:15.962Z,24.10
2018-04-14T07:35:44.236Z,22.51
2018-04-14T07:38:12.369Z,21.42
2018-04-14T07:40:40.489Z,21.43
2018-04-14T07:43:08.611Z,20.94
2018-04-14T07:45:36.733Z,19.78
2018-04-14T07:48:04.885Z,20.14
2018-04-14T07:50:33.039Z,20.60
2018-04-14T07:53:01.187Z,20.14
2018-04-14T07:55:29.306Z,20.32
2018-04-14T07:57:57.483Z,20.64
2018-04-14T08:00:25.664Z,20.51
2018-04-14T08:02:53.777Z,21.38
2018-04-14T08:05:21.895Z,22.28
2018-04-14T08:07:50.036Z,24.00
2018-04-14T08:10:18.162Z,24.14
2018-04-14T08:12:46.458Z,24.00
2018-04-14T08:15:14.588Z,24.27
2018-04-14T08:17:42.706Z,23.43
2018-04-14T08:20:10.815Z,23.05
2018-04-14T08:22:38.948Z,22.31
2018-04-14T08:25:07.117Z,23.35
2018-04-14T08:27:35.237Z,23.54
2018-04-14T08:30:03.423Z,24.81
2018-04-14T08:32:31.583Z,24.96
2018-04-14T08:34:59.713Z,24.14
2018-04-14T08:37:27.934Z,24.09
2018-04-14T08:39:56.029Z,24.66
2018-04-14T08:42:24.160Z,24.20
2018-04-14T08:44:52.279Z,23.46
2018-04-14T08:47:20.397Z,21.70
2018-04-14T08:49:48.651Z,20.38
2018-04-14T08:52:16.776Z,20.29
2018-04-14T08:54:45.121Z,19.85
2018-04-14T08:57:13.208Z,20.05
2018-04-14T08:59:41.289Z,21.24
2018-04-14T09:02:10.387Z,22.37
2018-04-14T09:04:38.474Z,22.79
2018-04-14T09:07:06.744Z,22.48
2018-04-14T09:09:34.900Z,23.83
2018-04-14T09:12:02.986Z,24.53
2018-04-14T09:14:31.074Z,25.63
2018-04-14T09:16:59.177Z,24.57
2018-04-14T09:19:27.667Z,24.65
2018-04-14T09:21:56.072Z,23.75
2018-04-14T09:24:24.585Z,25.14
2018-04-14T09:26:53.129Z,23.66
2018-04-14T09:29:21.549Z,23.21
2018-04-14T09:31:49.985Z,22.74
2018-04-14T09:34:18.444Z,22.23
2018-04-14T09:36:46.852Z,24.41
2018-04-14T09:39:15.216Z,24.52
2018-04-14T09:41:43.674Z,25.21
2018-04-14T09:44:12.062Z,25.13
2018-04-14T09:46:40.472Z,25.68
2018-04-14T09:49:08.864Z,25.55
2018-04-14T09:51:37.256Z,26.49
2018-04-14T09:54:05.730Z,26.71
2018-04-14T09:56:34.117Z,25.58
2018-04-14T09:59:02.505Z,26.51
2018-04-14T10:01:30.903Z,26.83
2018-04-14T10:03:59.420Z,27.38
2018-04-14T10:06:27.903Z,26.52
2018-04-14T10:08:56.288Z,26.64
2018-04-14T10:11:24.705Z,26.54
2018-04-14T10:13:53.318Z,27.02
2018-04-14T10:16:21.812Z,26.77
2018-04-14T10:18:50.224Z,27.10
2018-04-14T10:21:18.613Z,26.30
2018-04-14T10:23:47.148Z,27.11
2018-04-14T10:26:15.517Z,28.04
2018-04-14T10:28:43.955Z,27.63
2018-04-14T10:31:12.437Z,29.04
2018-04-14T10:33:40.854Z,28.48
2018-04-14T10:36:09.231Z,27.07
2018-04-14T10:38:37.660Z,27.00
2018-04-14T10:41:06.214Z,27.48
2018-04-14T10:43:34.585Z,27.75
2018-04-14T10:46:02.986Z,26.83
2018-04-14T10:48:31.385Z,25.68
2018-04-14T10:50:59.879Z,26.38
2018-04-14T10:53:28.294Z,25.84
2018-04-14T10:55:56.758Z,24.31
2018-04-14T10:58:25.264Z,22.65
2018-04-14T11:00:53.672Z,22.34
2018-04-14T11:03:22.042Z,23.66
2018-04-14T11:05:50.428Z,24.70
2018-04-14T11:08:18.777Z,25.29
2018-04-14T11:10:47.229Z,26.08
2018-04-14T11:13:15.591Z,27.28
2018-04-14T11:15:43.948Z,28.36
2018-04-14T11:18:12.315Z,27.67
2018-04-14T11:20:40.667Z,27.34
2018-04-14T11:23:09.099Z,27.53
2018-04-14T11:25:37.461Z,27.79
2018-04-14T11:28:05.809Z,25.99
2018-04-14T11:30:34.189Z,25.98
2018-04-14T11:33:02.656Z,27.96
2018-04-14T11:35:32.120Z,27.83
2018-04-14T11:38:00.476Z,27.89
2018-04-14T11:40:28.833Z,26.43
2018-04-14T11:42:57.189Z,26.99
2018-04-14T11:45:25.545Z,25.43
2018-04-14T11:47:53.899Z,26.36
2018-04-14T11:50:22.271Z,26.18
2018-04-14T11:52:50.774Z,25.47
2018-04-14T11:55:19.141Z,26.56
2018-04-14T11:57:47.512Z,26.09
2018-04-14T12:00:15.887Z,25.30
2018-04-14T12:02:44.327Z,25.75
2018-04-14T12:05:12.826Z,24.41
2018-04-14T12:07:41.175Z,23.45
2018-04-14T12:10:09.544Z,23.28
2018-04-14T12:12:37.899Z,22.86
2018-04-14T12:15:06.272Z,22.10
2018-04-14T12:17:34.714Z,21.87
2018-04-14T12:20:03.054Z,22.73
2018-04-14T12:22:31.421Z,23.17
2018-04-14T12:24:59.773Z,22.71
2018-04-14T12:27:28.129Z,23.40
2018-04-14T12:29:56.555Z,22.58
2018-04-14T12:32:24.934Z,22.46
2018-04-14T12:34:53.286Z,22.22
2018-04-14T12:37:21.772Z,22.29
2018-04-14T12:39:50.139Z,21.85
2018-04-14T12:42:18.558Z,22.83
2018-04-14T12:44:46.926Z,22.64
2018-04-14T12:47:15.276Z,23.14
2018-04-14T12:49:43.633Z,24.44
2018-04-14T12:52:11.989Z,24.48
2018-04-14T12:54:40.433Z,23.51
2018-04-14T12:57:08.795Z,23.22
2018-04-14T12:59:37.156Z,22.82
2018-04-14T13:02:05.607Z,23.48
2018-04-14T13:04:34.001Z,23.45
2018-04-14T13:07:02.395Z,22.97
2018-04-14T13:09:30.801Z,22.41
2018-04-14T13:11:59.189Z,22.29
2018-04-14T13:14:27.634Z,22.65
2018-04-14T13:16:56.042Z,22.48
2018-04-14T13:19:24.435Z,21.99
2018-04-14T13:21:52.905Z,22.08
2018-04-14T13:24:21.301Z,22.67
2018-04-14T13:26:49.903Z,23.70
2018-04-14T13:29:19.280Z,23.18
2018-04-14T13:31:47.662Z,22.29
2018-04-14T13:34:16.055Z,22.15
2018-04-14T13:36:44.710Z,22.54
2018-04-14T13:39:13.168Z,21.96
2018-04-14T13:41:41.559Z,22.14
2018-04-14T13:44:10.033Z,22.29
2018-04-14T13:46:38.446Z,22.14
2018-04-14T13:49:06.837Z,22.98
2018-04-14T13:51:35.373Z,21.82
2018-04-14T13:54:03.765Z,21.83
2018-04-14T13:56:33.041Z,21.76
2018-04-14T13:59:01.403Z,21.55
2018-04-14T14:01:29.774Z,22.06
2018-04-14T14:03:58.199Z,21.54
2018-04-14T14:06:26.554Z,22.50
2018-04-14T14:08:54.934Z,22.10
2018-04-14T14:11:23.304Z,22.17
2018-04-14T14:13:51.663Z,21.81
2018-04-14T14:16:20.038Z,22.70
2018-04-14T14:18:48.391Z,22.06
2018-04-14T14:21:16.794Z,22.93
2018-04-14T14:23:45.255Z,23.13
2018-04-14T14:26:13.706Z,24.60
2018-04-14T14:28:42.182Z,24.33
2018-04-14T14:31:10.563Z,24.25
2018-04-14T14:33:38.942Z,24.15
2018-04-14T14:36:07.346Z,23.79
2018-04-14T14:38:35.902Z,23.33
2018-04-14T14:41:04.324Z,23.82
2018-04-14T14:43:32.838Z,23.55
2018-04-14T14:46:01.294Z,23.49
2018-04-14T14:48:29.826Z,22.14
2018-04-14T14:50:58.202Z,23.16
2018-04-14T14:53:26.614Z,23.03
2018-04-14T14:55:55.164Z,23.11
2018-04-14T14:58:23.561Z,22.77
2018-04-14T15:00:51.950Z,22.89
2018-04-14T15:03:20.411Z,21.73
2018-04-14T15:05:48.872Z,22.41
2018-04-14T15:08:17.264Z,22.53
2018-04-14T15:10:45.659Z,22.72
2018-04-14T15:13:14.128Z,23.25
2018-04-14T15:15:42.545Z,23.33
2018-04-14T15:18:10.993Z,22.53
2018-04-14T15:20:39.368Z,23.09
2018-04-14T15:23:07.842Z,23.06
2018-04-14T15:25:36.479Z,23.57
2018-04-14T15:28:04.868Z,23.44
2018-04-14T15:30:33.340Z,23.19
2018-04-14T15:33:01.732Z,22.61
2018-04-14T15:35:30.251Z,22.87
2018-04-14T15:37:58.650Z,21.57
2018-04-14T15:40:27.038Z,21.65
2018-04-14T15:42:55.430Z,22.12
2018-04-14T15:45:23.818Z,22.20
2018-04-14T15:47:52.280Z,22.46
2018-04-14T15:50:20.673Z,22.18
2018-04-14T15:52:49.042Z,22.47
2018-04-14T15:55:17.438Z,22.03
2018-04-14T15:57:45.851Z,21.98
2018-04-14T16:00:14.387Z,22.12
2018-04-14T16:02:42.793Z,22.03
2018-04-14T16:05:11.178Z,22.07
2018-04-14T16:07:39.610Z,22.11
2018-04-14T16:10:08.009Z,22.31
2018-04-14T16:12:36.573Z,22.50
2018-04-14T16:15:04.974Z,22.49
2018-04-14T16:17:33.383Z,22.40
2018-04-14T16:20:01.797Z,22.10
2018-04-14T16:22:30.285Z,22.49
2018-04-14T16:24:58.797Z,22.52
2018-04-14T16:27:27.194Z,22.62
2018-04-14T16:29:55.648Z,23.05
2018-04-14T16:32:24.041Z,22.83
2018-04-14T16:34:52.391Z,22.81
2018-04-14T16:37:20.839Z,22.59
2018-04-14T16:39:49.193Z,22.78
2018-04-14T16:42:17.613Z,22.96
2018-04-14T16:44:46.003Z,22.95
2018-04-14T16:47:14.371Z,22.70
2018-04-14T16:49:42.748Z,23.13
2018-04-14T16:52:11.120Z,23.33
2018-04-14T16:54:39.494Z,22.34
2018-04-14T16:57:07.877Z,22.82
2018-04-14T16:59:36.414Z,22.71
2018-04-14T17:02:04.933Z,22.57
2018-04-14T17:04:33.355Z,22.85
2018-04-14T17:07:01.761Z,22.29
2018-04-14T17:09:30.482Z,22.46
2018-04-14T17:11:59.505Z,22.31
2018-04-14T17:14:27.998Z,22.16
2018-04-14T17:16:56.417Z,21.60
2018-04-14T17:19:24.827Z,21.61
2018-04-14T17:21:53.262Z,21.53
2018-04-14T17:24:21.774Z,22.24
2018-04-14T17:26:50.157Z,21.33
2018-04-14T17:29:18.573Z,21.71
2018-04-14T17:31:47.025Z,21.83
2018-04-14T17:34:15.441Z,21.45
2018-04-14T17:36:44.521Z,21.58
2018-04-14T17:39:13.644Z,21.68
2018-04-14T17:41:42.124Z,22.05
2018-04-14T17:44:10.540Z,21.98
2018-04-14T17:46:39.075Z,21.99
2018-04-14T17:49:07.488Z,21.74
2018-04-14T17:51:35.925Z,21.36
2018-04-14T17:54:04.337Z,21.22
2018-04-14T17:56:32.760Z,21.37
2018-04-14T17:59:01.866Z,21.37
2018-04-14T18:01:30.332Z,21.59
2018-04-14T18:03:58.808Z,20.87
2018-04-14T18:06:27.231Z,20.92
2018-04-14T18:08:55.640Z,20.62
2018-04-14T18:11:24.184Z,20.19
2018-04-14T18:13:52.600Z,19.88
2018-04-14T18:16:21.012Z,20.19
2018-04-14T18:18:49.507Z,20.26
2018-04-14T18:21:17.932Z,20.40
2018-04-14T18:23:46.522Z,20.36
2018-04-14T18:26:15.506Z,20.24
2018-04-14T18:28:43.942Z,20.20
2018-04-14T18:31:12.367Z,20.06
2018-04-14T18:33:40.785Z,20.28
2018-04-14T18:36:09.277Z,20.46
2018-04-14T18:38:37.688Z,20.48
2018-04-14T18:41:06.092Z,20.18
2018-04-14T18:43:34.631Z,20.10
2018-04-14T18:46:03.072Z,20.11
2018-04-14T18:48:31.770Z,20.18
2018-04-14T18:51:00.475Z,20.13
2018-04-14T18:53:28.871Z,19.76
2018-04-14T18:55:57.348Z,19.77
2018-04-14T18:58:25.722Z,19.83
2018-04-14T19:00:54.188Z,19.42
2018-04-14T19:03:22.584Z,19.50
2018-04-14T19:05:51.012Z,19.52
2018-04-14T19:08:19.391Z,19.18
2018-04-14T19:10:47.771Z,19.32
2018-04-14T19:13:16.230Z,19.69
2018-04-14T19:15:46.459Z,19.47
2018-04-14T19:18:14.831Z,19.52
2018-04-14T19:20:43.206Z,19.56
2018-04-14T19:23:11.584Z,19.48
2018-04-14T19:25:40.050Z,19.42
2018-04-14T19:28:08.471Z,19.29
2018-04-14T19:30:36.877Z,19.05
2018-04-14T19:33:05.370Z,19.49
2018-04-14T19:35:33.773Z,19.52
2018-04-14T19:38:02.556Z,19.63
2018-04-14T19:40:30.946Z,19.60
2018-04-14T19:42:59.403Z,19.29
2018-04-14T19:45:27.821Z,19.25
2018-04-14T19:47:56.238Z,19.40
2018-04-14T19:50:24.640Z,19.44
2018-04-14T19:52:53.057Z,19.63
2018-04-14T19:55:21.507Z,19.36
2018-04-14T19:57:49.920Z,19.65
2018-04-14T20:00:18.347Z,19.45
2018-04-14T20:02:46.755Z,19.67
2018-04-14T20:05:15.719Z,19.97
2018-04-14T20:07:44.305Z,19.49
2018-04-14T20:10:12.739Z,19.10
2018-04-14T20:12:41.331Z,18.55
2018-04-14T20:15:09.766Z,18.58
2018-04-14T20:17:38.282Z,18.93
2018-04-14T20:20:06.811Z,19.43
2018-04-14T20:22:35.248Z,19.44
2018-04-14T20:25:03.656Z,19.04
2018-04-14T20:27:32.068Z,19.07
2018-04-14T20:30:00.485Z,19.05
2018-04-14T20:32:29.047Z,19.48
2018-04-14T20:34:57.935Z,19.38
2018-04-14T20:37:26.614Z,19.16
2018-04-14T20:39:55.140Z,19.50
2018-04-14T20:42:23.551Z,19.05
2018-04-14T20:44:52.074Z,19.30
2018-04-14T20:47:20.489Z,19.21
2018-04-14T20:49:49.055Z,19.45
2018-04-14T20:52:17.451Z,19.28
2018-04-14T20:54:46.808Z,19.42
2018-04-14T20:57:15.517Z,19.11
2018-04-14T20:59:43.913Z,18.98
2018-04-14T21:02:12.357Z,18.89
2018-04-14T21:04:40.770Z,19.15
2018-04-14T21:07:09.264Z,19.29
2018-04-14T21:09:37.643Z,18.66
2018-04-14T21:12:06.053Z,18.46
2018-04-14T21:14:34.571Z,18.19
2018-04-14T21:17:02.962Z,18.94
2018-04-14T21:19:32.195Z,18.33
2018-04-14T21:22:00.847Z,18.77
2018-04-14T21:24:29.251Z,18.78
2018-04-14T21:26:57.625Z,18.92
2018-04-14T21:29:25.994Z,19.02
2018-04-14T21:31:54.412Z,19.20
2018-04-14T21:34:22.888Z,19.46
2018-04-14T21:36:51.351Z,19.30
2018-04-14T21:39:19.745Z,19.08
2018-04-14T21:41:48.112Z,19.01
2018-04-14T21:44:16.817Z,19.16
2018-04-14T21:46:45.486Z,19.17
2018-04-14T21:49:13.868Z,19.02
2018-04-14T21:51:42.360Z,18.67
2018-04-14T21:54:10.719Z,18.92
2018-04-14T21:56:39.133Z,18.81
2018-04-14T21:59:07.523Z,18.92
2018-04-14T22:01:35.980Z,18.65
2018-04-14T22:04:04.383Z,18.53
2018-04-14T22:06:33.003Z,18.89
2018-04-14T22:09:01.448Z,18.61
2018-04-14T22:11:30.113Z,18.33
2018-04-14T22:13:58.601Z,18.67
2018-04-14T22:16:27.016Z,18.27
2018-04-14T22:18:55.401Z,18.60
2018-04-14T22:21:23.788Z,18.57
2018-04-14T22:23:52.150Z,18.42
2018-04-14T22:26:20.578Z,18.47
2018-04-14T22:28:49.038Z,18.24
2018-04-14T22:31:17.487Z,18.46
2018-04-14T22:33:46.121Z,18.19
2018-04-14T22:36:14.489Z,18.30
2018-04-14T22:38:42.946Z,18.50
2018-04-14T22:41:11.307Z,18.32
2018-04-14T22:43:39.688Z,18.15
2018-04-14T22:46:08.055Z,18.07
2018-04-14T22:48:36.422Z,18.42
2018-04-14T22:51:04.937Z,18.21
2018-04-14T22:53:33.305Z,18.28
2018-04-14T22:56:01.704Z,18.26
2018-04-14T22:58:30.116Z,18.33
2018-04-14T23:00:58.527Z,18.20
2018-04-14T23:03:26.877Z,17.99
2018-04-14T23:05:55.324Z,18.46
2018-04-14T23:08:23.684Z,17.61
2018-04-14T23:10:52.134Z,17.50
2018-04-14T23:13:20.494Z,17.57
2018-04-14T23:15:48.874Z,17.93
2018-04-14T23:18:17.289Z,17.81
2018-04-14T23:20:45.707Z,17.80
2018-04-14T23:23:14.753Z,17.53
2018-04-14T23:25:43.552Z,17.79
2018-04-14T23:28:12.101Z,17.86
2018-04-14T23:30:40.561Z,18.16
2018-04-14T23:33:08.948Z,18.10
2018-04-14T23:35:37.457Z,17.72
2018-04-14T23:38:05.855Z,17.57
2018-04-14T23:40:34.310Z,17.59
2018-04-14T23:43:02.726Z,17.39
2018-04-14T23:45:31.082Z,17.36
2018-04-14T23:47:59.467Z,17.24
2018-04-14T23:50:27.943Z,17.45
2018-04-14T23:52:56.319Z,17.47
2018-04-14T23:55:24.698Z,17.29
2018-04-14T23:57:53.350Z,17.19
